sensor_id;sensor_type;location;lat;lon;timestamp;temperature;humidity
31677;DHT22;18385;51.572;6.578;2024-01-07T00:02:13;6.60;72.60
31677;DHT22;18385;51.572;6.578;2024-01-07T00:04:40;6.60;72.60
31677;DHT22;18385;51.572;6.578;2024-01-07T00:07:06;6.60;72.60
31677;DHT22;18385;51.572;6.578;2024-01-07T00:09:31;6.60;72.60
31677;DHT22;18385;51.572;6.578;2024-01-07T00:11:57;6.60;72.50
31677;DHT22;18385;51.572;6.578;2024-01-07T00:14:23;6.60;72.60
31677;DHT22;18385;51.572;6.578;2024-01-07T00:16:48;6.50;72.40
31677;DHT22;18385;51.572;6.578;2024-01-07T00:19:14;6.40;72.50
31677;DHT22;18385;51.572;6.578;2024-01-07T00:21:40;6.30;72.50
31677;DHT22;18385;51.572;6.578;2024-01-07T00:24:05;6.30;72.70
31677;DHT22;18385;51.572;6.578;2024-01-07T00:26:31;6.30;72.80
31677;DHT22;18385;51.572;6.578;2024-01-07T00:28:57;6.30;72.90
31677;DHT22;18385;51.572;6.578;2024-01-07T00:31:22;6.30;72.90
31677;DHT22;18385;51.572;6.578;2024-01-07T00:33:48;6.30;72.80
31677;DHT22;18385;51.572;6.578;2024-01-07T00:36:13;6.30;72.80
31677;DHT22;18385;51.572;6.578;2024-01-07T00:38:39;6.30;72.90
31677;DHT22;18385;51.572;6.578;2024-01-07T00:41:05;6.30;72.90
31677;DHT22;18385;51.572;6.578;2024-01-07T00:43:30;6.30;72.90
31677;DHT22;18385;51.572;6.578;2024-01-07T00:45:56;6.30;73.00
31677;DHT22;18385;51.572;6.578;2024-01-07T00:48:22;6.30;72.90
31677;DHT22;18385;51.572;6.578;2024-01-07T00:50:48;6.30;72.90
31677;DHT22;18385;51.572;6.578;2024-01-07T00:53:14;6.30;72.90
31677;DHT22;18385;51.572;6.578;2024-01-07T00:55:39;6.40;73.00
31677;DHT22;18385;51.572;6.578;2024-01-07T00:58:05;6.40;72.90
31677;DHT22;18385;51.572;6.578;2024-01-07T01:00:31;6.40;72.80
31677;DHT22;18385;51.572;6.578;2024-01-07T01:02:56;6.40;72.80
31677;DHT22;18385;51.572;6.578;2024-01-07T01:05:22;6.40;72.80
31677;DHT22;18385;51.572;6.578;2024-01-07T01:07:48;6.30;72.70
31677;DHT22;18385;51.572;6.578;2024-01-07T01:10:14;6.30;72.90
31677;DHT22;18385;51.572;6.578;2024-01-07T01:12:42;6.30;72.90
31677;DHT22;18385;51.572;6.578;2024-01-07T01:15:10;6.30;72.90
31677;DHT22;18385;51.572;6.578;2024-01-07T01:17:35;6.40;73.00
31677;DHT22;18385;51.572;6.578;2024-01-07T01:20:01;6.40;72.90
31677;DHT22;18385;51.572;6.578;2024-01-07T01:22:27;6.40;72.70
31677;DHT22;18385;51.572;6.578;2024-01-07T01:24:53;6.30;72.60
31677;DHT22;18385;51.572;6.578;2024-01-07T01:27:19;6.20;72.70
31677;DHT22;18385;51.572;6.578;2024-01-07T01:29:45;6.20;72.70
31677;DHT22;18385;51.572;6.578;2024-01-07T01:32:10;6.10;72.80
31677;DHT22;18385;51.572;6.578;2024-01-07T01:34:36;6.10;73.00
31677;DHT22;18385;51.572;6.578;2024-01-07T01:37:02;6.10;73.00
31677;DHT22;18385;51.572;6.578;2024-01-07T01:39:28;6.10;73.80
31677;DHT22;18385;51.572;6.578;2024-01-07T01:41:54;6.20;73.10
31677;DHT22;18385;51.572;6.578;2024-01-07T01:44:21;6.20;73.00
31677;DHT22;18385;51.572;6.578;2024-01-07T01:46:46;6.20;72.90
31677;DHT22;18385;51.572;6.578;2024-01-07T01:49:13;6.10;72.80
31677;DHT22;18385;51.572;6.578;2024-01-07T01:51:39;6.10;72.90
31677;DHT22;18385;51.572;6.578;2024-01-07T01:54:05;6.10;73.00
31677;DHT22;18385;51.572;6.578;2024-01-07T01:56:31;6.20;73.10
31677;DHT22;18385;51.572;6.578;2024-01-07T01:58:59;6.20;73.00
31677;DHT22;18385;51.572;6.578;2024-01-07T02:01:25;6.20;72.90
31677;DHT22;18385;51.572;6.578;2024-01-07T02:03:51;6.20;72.90
31677;DHT22;18385;51.572;6.578;2024-01-07T02:06:20;6.20;73.70
31677;DHT22;18385;51.572;6.578;2024-01-07T02:08:46;6.20;73.10
31677;DHT22;18385;51.572;6.578;2024-01-07T02:11:19;6.10;72.90
31677;DHT22;18385;51.572;6.578;2024-01-07T02:13:45;6.10;73.00
31677;DHT22;18385;51.572;6.578;2024-01-07T02:16:11;6.20;73.10
31677;DHT22;18385;51.572;6.578;2024-01-07T02:18:40;6.20;73.00
31677;DHT22;18385;51.572;6.578;2024-01-07T02:21:07;6.20;72.90
31677;DHT22;18385;51.572;6.578;2024-01-07T02:23:33;6.20;72.80
31677;DHT22;18385;51.572;6.578;2024-01-07T02:25:58;6.10;72.70
31677;DHT22;18385;51.572;6.578;2024-01-07T02:28:24;6.10;72.90
31677;DHT22;18385;51.572;6.578;2024-01-07T02:30:50;6.10;72.90
31677;DHT22;18385;51.572;6.578;2024-01-07T02:33:15;6.10;72.90
31677;DHT22;18385;51.572;6.578;2024-01-07T02:35:41;6.10;72.80
31677;DHT22;18385;51.572;6.578;2024-01-07T02:38:06;6.10;72.90
31677;DHT22;18385;51.572;6.578;2024-01-07T02:40:32;6.00;72.80
31677;DHT22;18385;51.572;6.578;2024-01-07T02:42:58;6.00;72.90
31677;DHT22;18385;51.572;6.578;2024-01-07T02:45:24;6.00;72.90
31677;DHT22;18385;51.572;6.578;2024-01-07T02:47:50;6.10;73.10
31677;DHT22;18385;51.572;6.578;2024-01-07T02:50:15;6.10;73.00
31677;DHT22;18385;51.572;6.578;2024-01-07T02:52:43;6.10;73.00
31677;DHT22;18385;51.572;6.578;2024-01-07T02:55:09;6.10;73.00
31677;DHT22;18385;51.572;6.578;2024-01-07T02:57:35;6.10;72.90
31677;DHT22;18385;51.572;6.578;2024-01-07T03:00:01;6.20;72.80
31677;DHT22;18385;51.572;6.578;2024-01-07T03:02:26;6.10;72.70
31677;DHT22;18385;51.572;6.578;2024-01-07T03:04:52;6.10;72.90
31677;DHT22;18385;51.572;6.578;2024-01-07T03:07:18;6.10;72.80
31677;DHT22;18385;51.572;6.578;2024-01-07T03:09:43;6.20;72.90
31677;DHT22;18385;51.572;6.578;2024-01-07T03:12:09;6.20;73.00
31677;DHT22;18385;51.572;6.578;2024-01-07T03:14:34;6.20;72.80
31677;DHT22;18385;51.572;6.578;2024-01-07T03:17:00;6.20;72.80
31677;DHT22;18385;51.572;6.578;2024-01-07T03:19:26;6.20;72.80
31677;DHT22;18385;51.572;6.578;2024-01-07T03:21:52;6.30;72.70
31677;DHT22;18385;51.572;6.578;2024-01-07T03:24:17;6.20;72.70
31677;DHT22;18385;51.572;6.578;2024-01-07T03:26:43;6.20;72.50
31677;DHT22;18385;51.572;6.578;2024-01-07T03:29:09;6.10;72.50
31677;DHT22;18385;51.572;6.578;2024-01-07T03:31:34;6.10;72.70
31677;DHT22;18385;51.572;6.578;2024-01-07T03:34:00;6.10;73.00
31677;DHT22;18385;51.572;6.578;2024-01-07T03:36:26;6.10;72.90
31677;DHT22;18385;51.572;6.578;2024-01-07T03:38:51;6.10;72.90
31677;DHT22;18385;51.572;6.578;2024-01-07T03:41:19;6.10;72.80
31677;DHT22;18385;51.572;6.578;2024-01-07T03:43:49;6.10;72.70
31677;DHT22;18385;51.572;6.578;2024-01-07T03:46:16;6.10;72.80
31677;DHT22;18385;51.572;6.578;2024-01-07T03:48:42;6.10;72.70
31677;DHT22;18385;51.572;6.578;2024-01-07T03:51:08;6.10;72.80
31677;DHT22;18385;51.572;6.578;2024-01-07T03:53:33;6.10;72.80
31677;DHT22;18385;51.572;6.578;2024-01-07T03:55:59;6.10;72.70
31677;DHT22;18385;51.572;6.578;2024-01-07T03:58:25;6.10;72.60
31677;DHT22;18385;51.572;6.578;2024-01-07T04:00:51;6.10;72.70
31677;DHT22;18385;51.572;6.578;2024-01-07T04:03:16;6.10;72.60
31677;DHT22;18385;51.572;6.578;2024-01-07T04:05:42;6.00;72.50
31677;DHT22;18385;51.572;6.578;2024-01-07T04:08:11;6.00;72.50
31677;DHT22;18385;51.572;6.578;2024-01-07T04:10:37;6.00;72.60
31677;DHT22;18385;51.572;6.578;2024-01-07T04:13:04;6.00;72.70
31677;DHT22;18385;51.572;6.578;2024-01-07T04:15:30;6.00;72.70
31677;DHT22;18385;51.572;6.578;2024-01-07T04:17:56;6.00;72.70
31677;DHT22;18385;51.572;6.578;2024-01-07T04:20:21;5.90;72.50
31677;DHT22;18385;51.572;6.578;2024-01-07T04:22:47;5.90;72.60
31677;DHT22;18385;51.572;6.578;2024-01-07T04:25:13;5.90;72.70
31677;DHT22;18385;51.572;6.578;2024-01-07T04:27:39;5.90;72.70
31677;DHT22;18385;51.572;6.578;2024-01-07T04:30:05;5.90;72.70
31677;DHT22;18385;51.572;6.578;2024-01-07T04:32:31;5.90;72.60
31677;DHT22;18385;51.572;6.578;2024-01-07T04:34:57;5.80;72.60
31677;DHT22;18385;51.572;6.578;2024-01-07T04:37:23;5.90;72.60
31677;DHT22;18385;51.572;6.578;2024-01-07T04:39:49;5.80;72.60
31677;DHT22;18385;51.572;6.578;2024-01-07T04:42:16;5.80;72.70
31677;DHT22;18385;51.572;6.578;2024-01-07T04:44:42;5.90;72.70
31677;DHT22;18385;51.572;6.578;2024-01-07T04:47:43;5.80;72.50
31677;DHT22;18385;51.572;6.578;2024-01-07T04:50:09;5.80;72.50
31677;DHT22;18385;51.572;6.578;2024-01-07T04:52:34;5.80;72.60
31677;DHT22;18385;51.572;6.578;2024-01-07T04:55:00;5.80;72.60
31677;DHT22;18385;51.572;6.578;2024-01-07T04:57:26;5.70;72.30
31677;DHT22;18385;51.572;6.578;2024-01-07T04:59:51;5.70;72.50
31677;DHT22;18385;51.572;6.578;2024-01-07T05:02:17;5.70;72.60
31677;DHT22;18385;51.572;6.578;2024-01-07T05:04:43;5.70;72.60
31677;DHT22;18385;51.572;6.578;2024-01-07T05:07:09;5.70;72.50
31677;DHT22;18385;51.572;6.578;2024-01-07T05:09:35;5.70;72.60
31677;DHT22;18385;51.572;6.578;2024-01-07T05:12:00;5.70;72.60
31677;DHT22;18385;51.572;6.578;2024-01-07T05:14:26;5.70;72.50
31677;DHT22;18385;51.572;6.578;2024-01-07T05:16:53;5.70;72.50
31677;DHT22;18385;51.572;6.578;2024-01-07T05:19:19;5.70;72.50
31677;DHT22;18385;51.572;6.578;2024-01-07T05:21:45;5.70;72.50
31677;DHT22;18385;51.572;6.578;2024-01-07T05:24:11;5.70;72.50
31677;DHT22;18385;51.572;6.578;2024-01-07T05:26:43;5.70;72.60
31677;DHT22;18385;51.572;6.578;2024-01-07T05:29:10;5.70;72.50
31677;DHT22;18385;51.572;6.578;2024-01-07T05:31:35;5.70;72.50
31677;DHT22;18385;51.572;6.578;2024-01-07T05:34:01;5.70;72.40
31677;DHT22;18385;51.572;6.578;2024-01-07T05:36:26;5.70;72.40
31677;DHT22;18385;51.572;6.578;2024-01-07T05:38:52;5.80;72.40
31677;DHT22;18385;51.572;6.578;2024-01-07T05:41:18;5.80;72.30
31677;DHT22;18385;51.572;6.578;2024-01-07T05:43:43;5.80;72.40
31677;DHT22;18385;51.572;6.578;2024-01-07T05:46:09;5.90;72.30
31677;DHT22;18385;51.572;6.578;2024-01-07T05:48:46;5.90;72.20
31677;DHT22;18385;51.572;6.578;2024-01-07T05:51:12;5.90;72.10
31677;DHT22;18385;51.572;6.578;2024-01-07T05:53:39;5.80;72.00
31677;DHT22;18385;51.572;6.578;2024-01-07T05:56:05;5.80;72.10
31677;DHT22;18385;51.572;6.578;2024-01-07T05:58:31;5.70;72.00
31677;DHT22;18385;51.572;6.578;2024-01-07T06:00:57;5.60;72.00
31677;DHT22;18385;51.572;6.578;2024-01-07T06:03:23;5.60;72.10
31677;DHT22;18385;51.572;6.578;2024-01-07T06:05:48;5.60;72.30
31677;DHT22;18385;51.572;6.578;2024-01-07T06:08:14;5.60;72.10
31677;DHT22;18385;51.572;6.578;2024-01-07T06:10:40;5.60;72.10
31677;DHT22;18385;51.572;6.578;2024-01-07T06:13:06;5.60;72.30
31677;DHT22;18385;51.572;6.578;2024-01-07T06:15:31;5.60;72.30
31677;DHT22;18385;51.572;6.578;2024-01-07T06:17:57;5.60;72.20
31677;DHT22;18385;51.572;6.578;2024-01-07T06:20:23;5.60;72.20
31677;DHT22;18385;51.572;6.578;2024-01-07T06:22:49;5.60;72.10
31677;DHT22;18385;51.572;6.578;2024-01-07T06:25:16;5.60;72.20
31677;DHT22;18385;51.572;6.578;2024-01-07T06:27:41;5.60;72.10
31677;DHT22;18385;51.572;6.578;2024-01-07T06:30:07;5.60;72.20
31677;DHT22;18385;51.572;6.578;2024-01-07T06:32:34;5.70;72.20
31677;DHT22;18385;51.572;6.578;2024-01-07T06:35:00;5.70;72.10
31677;DHT22;18385;51.572;6.578;2024-01-07T06:37:25;5.60;71.90
31677;DHT22;18385;51.572;6.578;2024-01-07T06:39:54;5.60;72.00
31677;DHT22;18385;51.572;6.578;2024-01-07T06:42:20;5.50;72.00
31677;DHT22;18385;51.572;6.578;2024-01-07T06:44:46;5.50;72.00
31677;DHT22;18385;51.572;6.578;2024-01-07T06:47:11;5.50;72.10
31677;DHT22;18385;51.572;6.578;2024-01-07T06:49:37;5.50;72.10
31677;DHT22;18385;51.572;6.578;2024-01-07T06:52:04;5.50;72.20
31677;DHT22;18385;51.572;6.578;2024-01-07T06:54:30;5.50;72.10
31677;DHT22;18385;51.572;6.578;2024-01-07T06:56:56;5.50;72.10
31677;DHT22;18385;51.572;6.578;2024-01-07T06:59:21;5.40;72.10
31677;DHT22;18385;51.572;6.578;2024-01-07T07:01:47;5.50;72.10
31677;DHT22;18385;51.572;6.578;2024-01-07T07:04:13;5.50;72.10
31677;DHT22;18385;51.572;6.578;2024-01-07T07:06:38;5.40;72.10
31677;DHT22;18385;51.572;6.578;2024-01-07T07:09:04;5.40;72.00
31677;DHT22;18385;51.572;6.578;2024-01-07T07:11:30;5.40;72.00
31677;DHT22;18385;51.572;6.578;2024-01-07T07:13:56;5.50;72.20
31677;DHT22;18385;51.572;6.578;2024-01-07T07:16:22;5.50;72.00
31677;DHT22;18385;51.572;6.578;2024-01-07T07:18:48;5.40;72.00
31677;DHT22;18385;51.572;6.578;2024-01-07T07:21:13;5.50;72.00
31677;DHT22;18385;51.572;6.578;2024-01-07T07:23:39;5.50;71.90
31677;DHT22;18385;51.572;6.578;2024-01-07T07:26:04;5.40;71.80
31677;DHT22;18385;51.572;6.578;2024-01-07T07:28:30;5.40;71.90
31677;DHT22;18385;51.572;6.578;2024-01-07T07:30:56;5.40;71.90
31677;DHT22;18385;51.572;6.578;2024-01-07T07:33:21;5.40;72.00
31677;DHT22;18385;51.572;6.578;2024-01-07T07:35:47;5.40;72.00
31677;DHT22;18385;51.572;6.578;2024-01-07T07:38:12;5.50;71.90
31677;DHT22;18385;51.572;6.578;2024-01-07T07:40:38;5.50;71.90
31677;DHT22;18385;51.572;6.578;2024-01-07T07:43:04;5.50;71.70
31677;DHT22;18385;51.572;6.578;2024-01-07T07:45:29;5.50;71.80
31677;DHT22;18385;51.572;6.578;2024-01-07T07:47:55;5.40;71.70
31677;DHT22;18385;51.572;6.578;2024-01-07T07:50:21;5.40;71.70
31677;DHT22;18385;51.572;6.578;2024-01-07T07:52:47;5.40;71.60
31677;DHT22;18385;51.572;6.578;2024-01-07T07:55:12;5.40;71.70
31677;DHT22;18385;51.572;6.578;2024-01-07T07:57:38;5.40;71.80
31677;DHT22;18385;51.572;6.578;2024-01-07T08:00:05;5.40;71.70
31677;DHT22;18385;51.572;6.578;2024-01-07T08:02:31;5.40;71.70
31677;DHT22;18385;51.572;6.578;2024-01-07T08:04:57;5.40;71.80
31677;DHT22;18385;51.572;6.578;2024-01-07T08:07:23;5.40;72.40
31677;DHT22;18385;51.572;6.578;2024-01-07T08:09:48;5.40;71.70
31677;DHT22;18385;51.572;6.578;2024-01-07T08:12:14;5.40;71.70
31677;DHT22;18385;51.572;6.578;2024-01-07T08:14:39;5.40;71.60
31677;DHT22;18385;51.572;6.578;2024-01-07T08:17:08;5.30;72.20
31677;DHT22;18385;51.572;6.578;2024-01-07T08:19:35;5.30;71.50
31677;DHT22;18385;51.572;6.578;2024-01-07T08:22:01;5.30;71.60
31677;DHT22;18385;51.572;6.578;2024-01-07T08:24:26;5.30;71.60
31677;DHT22;18385;51.572;6.578;2024-01-07T08:26:53;5.30;71.60
31677;DHT22;18385;51.572;6.578;2024-01-07T08:29:19;5.30;71.50
31677;DHT22;18385;51.572;6.578;2024-01-07T08:31:44;5.30;71.60
31677;DHT22;18385;51.572;6.578;2024-01-07T08:34:10;5.20;71.50
31677;DHT22;18385;51.572;6.578;2024-01-07T08:36:36;5.20;71.50
31677;DHT22;18385;51.572;6.578;2024-01-07T08:39:01;5.20;71.60
31677;DHT22;18385;51.572;6.578;2024-01-07T08:41:27;5.30;71.60
31677;DHT22;18385;51.572;6.578;2024-01-07T08:43:52;5.30;71.50
31677;DHT22;18385;51.572;6.578;2024-01-07T08:46:21;5.30;71.50
31677;DHT22;18385;51.572;6.578;2024-01-07T08:48:47;5.40;71.50
31677;DHT22;18385;51.572;6.578;2024-01-07T08:51:13;5.30;71.40
31677;DHT22;18385;51.572;6.578;2024-01-07T08:53:39;5.40;71.30
31677;DHT22;18385;51.572;6.578;2024-01-07T08:56:05;5.40;71.30
31677;DHT22;18385;51.572;6.578;2024-01-07T08:58:32;5.40;71.30
31677;DHT22;18385;51.572;6.578;2024-01-07T09:00:58;5.40;71.50
31677;DHT22;18385;51.572;6.578;2024-01-07T09:03:23;5.40;71.20
31677;DHT22;18385;51.572;6.578;2024-01-07T09:05:49;5.40;71.20
31677;DHT22;18385;51.572;6.578;2024-01-07T09:08:15;5.40;71.30
31677;DHT22;18385;51.572;6.578;2024-01-07T09:10:40;5.40;71.30
31677;DHT22;18385;51.572;6.578;2024-01-07T09:13:06;5.40;71.30
31677;DHT22;18385;51.572;6.578;2024-01-07T09:15:32;5.50;71.30
31677;DHT22;18385;51.572;6.578;2024-01-07T09:17:57;5.50;71.20
31677;DHT22;18385;51.572;6.578;2024-01-07T09:20:23;5.40;70.90
31677;DHT22;18385;51.572;6.578;2024-01-07T09:22:49;5.40;71.10
31677;DHT22;18385;51.572;6.578;2024-01-07T09:25:15;5.40;71.10
31677;DHT22;18385;51.572;6.578;2024-01-07T09:27:42;5.50;71.10
31677;DHT22;18385;51.572;6.578;2024-01-07T09:30:09;5.50;70.90
31677;DHT22;18385;51.572;6.578;2024-01-07T09:32:37;5.50;70.90
31677;DHT22;18385;51.572;6.578;2024-01-07T09:35:03;5.40;70.80
31677;DHT22;18385;51.572;6.578;2024-01-07T09:37:31;5.30;70.80
31677;DHT22;18385;51.572;6.578;2024-01-07T09:39:56;5.40;71.00
31677;DHT22;18385;51.572;6.578;2024-01-07T09:42:22;5.40;71.00
31677;DHT22;18385;51.572;6.578;2024-01-07T09:44:48;5.40;70.90
31677;DHT22;18385;51.572;6.578;2024-01-07T09:47:15;5.40;70.90
31677;DHT22;18385;51.572;6.578;2024-01-07T09:49:42;5.50;71.60
31677;DHT22;18385;51.572;6.578;2024-01-07T09:52:10;5.50;70.80
31677;DHT22;18385;51.572;6.578;2024-01-07T09:54:39;5.50;70.60
31677;DHT22;18385;51.572;6.578;2024-01-07T09:57:07;5.40;70.60
31677;DHT22;18385;51.572;6.578;2024-01-07T09:59:34;5.40;70.60
31677;DHT22;18385;51.572;6.578;2024-01-07T10:01:59;5.40;70.60
31677;DHT22;18385;51.572;6.578;2024-01-07T10:04:26;5.40;70.60
31677;DHT22;18385;51.572;6.578;2024-01-07T10:06:59;5.40;70.70
31677;DHT22;18385;51.572;6.578;2024-01-07T10:09:28;5.40;70.60
31677;DHT22;18385;51.572;6.578;2024-01-07T10:11:54;5.50;70.70
31677;DHT22;18385;51.572;6.578;2024-01-07T10:14:20;5.50;70.40
31677;DHT22;18385;51.572;6.578;2024-01-07T10:16:52;5.50;70.40
31677;DHT22;18385;51.572;6.578;2024-01-07T10:19:21;5.50;70.30
31677;DHT22;18385;51.572;6.578;2024-01-07T10:22:01;5.50;70.30
31677;DHT22;18385;51.572;6.578;2024-01-07T10:24:35;5.40;70.40
31677;DHT22;18385;51.572;6.578;2024-01-07T10:27:03;5.40;70.40
31677;DHT22;18385;51.572;6.578;2024-01-07T10:29:30;5.40;70.40
31677;DHT22;18385;51.572;6.578;2024-01-07T10:31:59;5.50;70.40
31677;DHT22;18385;51.572;6.578;2024-01-07T10:34:31;5.50;70.30
31677;DHT22;18385;51.572;6.578;2024-01-07T10:36:59;5.50;70.20
31677;DHT22;18385;51.572;6.578;2024-01-07T10:39:25;5.50;70.10
31677;DHT22;18385;51.572;6.578;2024-01-07T10:41:52;5.40;70.10
31677;DHT22;18385;51.572;6.578;2024-01-07T10:44:27;5.40;70.20
31677;DHT22;18385;51.572;6.578;2024-01-07T10:46:53;5.40;70.10
31677;DHT22;18385;51.572;6.578;2024-01-07T10:49:20;5.40;70.10
31677;DHT22;18385;51.572;6.578;2024-01-07T10:52:05;5.30;69.90
31677;DHT22;18385;51.572;6.578;2024-01-07T10:54:32;5.30;69.90
31677;DHT22;18385;51.572;6.578;2024-01-07T10:57:13;5.20;70.10
31677;DHT22;18385;51.572;6.578;2024-01-07T10:59:42;5.30;70.30
31677;DHT22;18385;51.572;6.578;2024-01-07T11:02:10;5.40;70.40
31677;DHT22;18385;51.572;6.578;2024-01-07T11:04:48;5.50;70.30
31677;DHT22;18385;51.572;6.578;2024-01-07T11:07:40;5.60;70.20
31677;DHT22;18385;51.572;6.578;2024-01-07T11:10:10;5.70;70.20
31677;DHT22;18385;51.572;6.578;2024-01-07T11:12:37;5.80;70.10
31677;DHT22;18385;51.572;6.578;2024-01-07T11:15:03;5.90;69.80
31677;DHT22;18385;51.572;6.578;2024-01-07T11:20:00;5.90;69.20
31677;DHT22;18385;51.572;6.578;2024-01-07T11:22:28;5.80;69.00
31677;DHT22;18385;51.572;6.578;2024-01-07T11:24:55;5.80;69.00
31677;DHT22;18385;51.572;6.578;2024-01-07T11:27:24;5.70;68.90
31677;DHT22;18385;51.572;6.578;2024-01-07T11:29:58;5.60;69.10
31677;DHT22;18385;51.572;6.578;2024-01-07T11:32:30;5.70;69.70
31677;DHT22;18385;51.572;6.578;2024-01-07T11:34:55;5.80;69.60
31677;DHT22;18385;51.572;6.578;2024-01-07T11:37:22;5.90;69.70
31677;DHT22;18385;51.572;6.578;2024-01-07T11:39:51;6.00;69.30
31677;DHT22;18385;51.572;6.578;2024-01-07T11:42:17;6.10;68.80
31677;DHT22;18385;51.572;6.578;2024-01-07T11:44:46;6.10;69.00
31677;DHT22;18385;51.572;6.578;2024-01-07T11:47:13;6.30;68.90
31677;DHT22;18385;51.572;6.578;2024-01-07T11:49:39;6.30;68.60
31677;DHT22;18385;51.572;6.578;2024-01-07T11:52:05;6.30;68.70
31677;DHT22;18385;51.572;6.578;2024-01-07T11:54:31;6.40;68.80
31677;DHT22;18385;51.572;6.578;2024-01-07T11:56:57;6.40;68.30
31677;DHT22;18385;51.572;6.578;2024-01-07T11:59:23;6.30;68.00
31677;DHT22;18385;51.572;6.578;2024-01-07T12:01:49;6.20;68.00
31677;DHT22;18385;51.572;6.578;2024-01-07T12:04:14;6.10;68.20
31677;DHT22;18385;51.572;6.578;2024-01-07T12:06:40;6.00;68.00
31677;DHT22;18385;51.572;6.578;2024-01-07T12:09:06;5.90;67.70
31677;DHT22;18385;51.572;6.578;2024-01-07T12:11:32;5.80;68.10
31677;DHT22;18385;51.572;6.578;2024-01-07T12:13:58;5.80;68.60
31677;DHT22;18385;51.572;6.578;2024-01-07T12:16:25;6.00;69.60
31677;DHT22;18385;51.572;6.578;2024-01-07T12:18:51;6.10;68.70
31677;DHT22;18385;51.572;6.578;2024-01-07T12:21:20;6.20;68.40
31677;DHT22;18385;51.572;6.578;2024-01-07T12:23:49;6.20;67.90
31677;DHT22;18385;51.572;6.578;2024-01-07T12:26:16;6.10;67.80
31677;DHT22;18385;51.572;6.578;2024-01-07T12:28:42;6.10;67.60
31677;DHT22;18385;51.572;6.578;2024-01-07T12:31:09;6.00;67.60
31677;DHT22;18385;51.572;6.578;2024-01-07T12:33:37;6.10;67.90
31677;DHT22;18385;51.572;6.578;2024-01-07T12:36:03;6.20;68.00
31677;DHT22;18385;51.572;6.578;2024-01-07T12:38:29;6.10;67.70
31677;DHT22;18385;51.572;6.578;2024-01-07T12:40:55;6.20;67.60
31677;DHT22;18385;51.572;6.578;2024-01-07T12:43:21;6.10;67.30
31677;DHT22;18385;51.572;6.578;2024-01-07T12:45:48;6.00;67.40
31677;DHT22;18385;51.572;6.578;2024-01-07T12:48:14;5.90;67.30
31677;DHT22;18385;51.572;6.578;2024-01-07T12:50:40;5.90;67.50
31677;DHT22;18385;51.572;6.578;2024-01-07T12:53:06;5.90;67.30
31677;DHT22;18385;51.572;6.578;2024-01-07T12:55:32;5.80;67.20
31677;DHT22;18385;51.572;6.578;2024-01-07T12:57:58;5.90;67.60
31677;DHT22;18385;51.572;6.578;2024-01-07T13:00:24;6.00;67.60
31677;DHT22;18385;51.572;6.578;2024-01-07T13:02:51;6.00;67.40
31677;DHT22;18385;51.572;6.578;2024-01-07T13:05:17;5.90;67.20
31677;DHT22;18385;51.572;6.578;2024-01-07T13:07:42;5.90;67.20
31677;DHT22;18385;51.572;6.578;2024-01-07T13:10:08;5.90;67.20
31677;DHT22;18385;51.572;6.578;2024-01-07T13:12:35;5.90;67.10
31677;DHT22;18385;51.572;6.578;2024-01-07T13:15:02;5.90;67.10
31677;DHT22;18385;51.572;6.578;2024-01-07T13:17:28;6.00;67.30
31677;DHT22;18385;51.572;6.578;2024-01-07T13:19:56;6.10;67.20
31677;DHT22;18385;51.572;6.578;2024-01-07T13:22:21;6.20;67.00
31677;DHT22;18385;51.572;6.578;2024-01-07T13:24:47;6.20;66.90
31677;DHT22;18385;51.572;6.578;2024-01-07T13:27:13;6.20;66.60
31677;DHT22;18385;51.572;6.578;2024-01-07T13:29:38;6.10;66.40
31677;DHT22;18385;51.572;6.578;2024-01-07T13:32:04;6.10;66.60
31677;DHT22;18385;51.572;6.578;2024-01-07T13:34:30;6.10;66.50
31677;DHT22;18385;51.572;6.578;2024-01-07T13:36:56;6.00;66.10
31677;DHT22;18385;51.572;6.578;2024-01-07T13:39:22;5.90;66.00
31677;DHT22;18385;51.572;6.578;2024-01-07T13:41:48;5.80;66.10
31677;DHT22;18385;51.572;6.578;2024-01-07T13:44:13;5.70;66.10
31677;DHT22;18385;51.572;6.578;2024-01-07T13:46:48;5.70;66.30
31677;DHT22;18385;51.572;6.578;2024-01-07T13:49:14;5.80;66.70
31677;DHT22;18385;51.572;6.578;2024-01-07T13:51:41;5.90;66.60
31677;DHT22;18385;51.572;6.578;2024-01-07T13:54:07;6.00;66.40
31677;DHT22;18385;51.572;6.578;2024-01-07T13:56:33;6.00;66.10
31677;DHT22;18385;51.572;6.578;2024-01-07T13:59:01;5.90;65.70
31677;DHT22;18385;51.572;6.578;2024-01-07T14:01:29;5.80;65.70
31677;DHT22;18385;51.572;6.578;2024-01-07T14:03:55;5.80;65.80
31677;DHT22;18385;51.572;6.578;2024-01-07T14:06:21;5.80;65.70
31677;DHT22;18385;51.572;6.578;2024-01-07T14:08:46;5.70;65.70
31677;DHT22;18385;51.572;6.578;2024-01-07T14:11:12;5.70;65.70
31677;DHT22;18385;51.572;6.578;2024-01-07T14:13:38;5.70;65.70
31677;DHT22;18385;51.572;6.578;2024-01-07T14:16:04;5.70;65.60
31677;DHT22;18385;51.572;6.578;2024-01-07T14:18:29;5.60;65.40
31677;DHT22;18385;51.572;6.578;2024-01-07T14:20:55;5.50;65.10
31677;DHT22;18385;51.572;6.578;2024-01-07T14:23:21;5.50;65.20
31677;DHT22;18385;51.572;6.578;2024-01-07T14:25:46;5.40;65.40
31677;DHT22;18385;51.572;6.578;2024-01-07T14:28:12;5.40;65.30
31677;DHT22;18385;51.572;6.578;2024-01-07T14:30:38;5.40;65.20
31677;DHT22;18385;51.572;6.578;2024-01-07T14:33:04;5.30;65.20
31677;DHT22;18385;51.572;6.578;2024-01-07T14:35:30;5.30;65.10
31677;DHT22;18385;51.572;6.578;2024-01-07T14:37:58;5.40;65.30
31677;DHT22;18385;51.572;6.578;2024-01-07T14:40:25;5.40;65.20
31677;DHT22;18385;51.572;6.578;2024-01-07T14:42:50;5.40;65.00
31677;DHT22;18385;51.572;6.578;2024-01-07T14:45:20;5.30;64.80
31677;DHT22;18385;51.572;6.578;2024-01-07T14:47:46;5.20;64.80
31677;DHT22;18385;51.572;6.578;2024-01-07T14:50:12;5.20;65.00
31677;DHT22;18385;51.572;6.578;2024-01-07T14:52:38;5.20;65.00
31677;DHT22;18385;51.572;6.578;2024-01-07T14:55:04;5.20;65.10
31677;DHT22;18385;51.572;6.578;2024-01-07T14:57:29;5.20;65.00
31677;DHT22;18385;51.572;6.578;2024-01-07T14:59:55;5.10;64.70
31677;DHT22;18385;51.572;6.578;2024-01-07T15:02:21;5.00;64.60
31677;DHT22;18385;51.572;6.578;2024-01-07T15:04:46;5.00;64.70
31677;DHT22;18385;51.572;6.578;2024-01-07T15:07:12;5.00;64.80
31677;DHT22;18385;51.572;6.578;2024-01-07T15:09:38;5.00;64.60
31677;DHT22;18385;51.572;6.578;2024-01-07T15:12:06;5.00;64.70
31677;DHT22;18385;51.572;6.578;2024-01-07T15:14:32;5.00;64.60
31677;DHT22;18385;51.572;6.578;2024-01-07T15:16:58;5.00;64.60
31677;DHT22;18385;51.572;6.578;2024-01-07T15:19:24;4.90;64.30
31677;DHT22;18385;51.572;6.578;2024-01-07T15:21:50;4.90;64.40
31677;DHT22;18385;51.572;6.578;2024-01-07T15:24:15;4.90;64.40
31677;DHT22;18385;51.572;6.578;2024-01-07T15:26:41;4.90;64.40
31677;DHT22;18385;51.572;6.578;2024-01-07T15:29:07;4.90;64.30
31677;DHT22;18385;51.572;6.578;2024-01-07T15:31:32;4.90;64.20
31677;DHT22;18385;51.572;6.578;2024-01-07T15:33:58;4.90;64.30
31677;DHT22;18385;51.572;6.578;2024-01-07T15:36:24;4.80;64.10
31677;DHT22;18385;51.572;6.578;2024-01-07T15:38:49;4.80;64.10
31677;DHT22;18385;51.572;6.578;2024-01-07T15:41:15;4.80;64.90
31677;DHT22;18385;51.572;6.578;2024-01-07T15:43:40;4.80;64.20